Terminal Aerodrome Forecast
Issued by NWS Duluth, MN

Home | Current Version | Previous Version | Text Only | Print | Product List | Glossary On
Versions: 1 2 3 4 5 6 7 8 9 10 11 12 13 14 15 16 17 18 19 20 21 22 23 24 25 26 27 28 29 30 31 32 33 34
000
FTUS43 KDLH 290100 AAA
TAFINL
TAF AMD
KINL 290152Z 2902/2924 03010KT P6SM -RA OVC015
      TEMPO 2902/2906 4SM -RA BR OVC008
     FM290600 05014KT P6SM SCT015 OVC020
     FM291400 07012KT P6SM OVC025
     FM291800 08008KT P6SM BKN035=

USA.gov is the U.S. government's official web portal to all federal, state and local government web resources and services.